sensor_id;sensor_type;location;lat;lon;timestamp;temperature;humidity
67817;DHT22;54614;47.576;7.524;2023-07-02T00:01:49;25.90;68.00
67817;DHT22;54614;47.576;7.524;2023-07-02T00:04:15;25.90;67.90
67817;DHT22;54614;47.576;7.524;2023-07-02T00:06:43;25.90;67.90
67817;DHT22;54614;47.576;7.524;2023-07-02T00:09:12;25.90;68.00
67817;DHT22;54614;47.576;7.524;2023-07-02T00:11:39;25.90;68.00
67817;DHT22;54614;47.576;7.524;2023-07-02T00:14:07;26.00;68.00
67817;DHT22;54614;47.576;7.524;2023-07-02T00:16:34;25.90;67.90
67817;DHT22;54614;47.576;7.524;2023-07-02T00:19:01;25.90;67.80
67817;DHT22;54614;47.576;7.524;2023-07-02T00:21:27;25.90;68.00
67817;DHT22;54614;47.576;7.524;2023-07-02T00:23:54;25.90;68.00
67817;DHT22;54614;47.576;7.524;2023-07-02T00:26:24;25.90;67.90
67817;DHT22;54614;47.576;7.524;2023-07-02T00:28:52;25.90;67.90
67817;DHT22;54614;47.576;7.524;2023-07-02T00:31:19;25.90;68.00
67817;DHT22;54614;47.576;7.524;2023-07-02T00:33:45;25.90;67.90
67817;DHT22;54614;47.576;7.524;2023-07-02T00:36:11;25.90;68.00
67817;DHT22;54614;47.576;7.524;2023-07-02T00:38:41;25.90;68.00
67817;DHT22;54614;47.576;7.524;2023-07-02T00:41:09;25.90;67.90
67817;DHT22;54614;47.576;7.524;2023-07-02T00:43:35;25.90;67.90
67817;DHT22;54614;47.576;7.524;2023-07-02T00:46:01;26.00;68.00
67817;DHT22;54614;47.576;7.524;2023-07-02T00:48:29;25.90;68.00
67817;DHT22;54614;47.576;7.524;2023-07-02T00:50:56;25.90;68.00
67817;DHT22;54614;47.576;7.524;2023-07-02T00:53:22;25.90;68.00
67817;DHT22;54614;47.576;7.524;2023-07-02T00:55:48;25.90;67.80
67817;DHT22;54614;47.576;7.524;2023-07-02T00:58:13;25.90;67.90
67817;DHT22;54614;47.576;7.524;2023-07-02T01:00:41;25.90;67.80
67817;DHT22;54614;47.576;7.524;2023-07-02T01:03:08;25.90;67.80
67817;DHT22;54614;47.576;7.524;2023-07-02T01:05:33;25.80;67.80
67817;DHT22;54614;47.576;7.524;2023-07-02T01:08:03;25.90;67.90
67817;DHT22;54614;47.576;7.524;2023-07-02T01:10:31;26.60;68.50
67817;DHT22;54614;47.576;7.524;2023-07-02T01:13:05;25.90;68.00
67817;DHT22;54614;47.576;7.524;2023-07-02T01:15:38;25.90;68.00
67817;DHT22;54614;47.576;7.524;2023-07-02T01:18:05;25.90;67.90
67817;DHT22;54614;47.576;7.524;2023-07-02T01:20:33;25.90;67.90
67817;DHT22;54614;47.576;7.524;2023-07-02T01:23:01;25.90;67.80
67817;DHT22;54614;47.576;7.524;2023-07-02T01:25:28;25.90;67.90
67817;DHT22;54614;47.576;7.524;2023-07-02T01:27:53;25.90;67.90
67817;DHT22;54614;47.576;7.524;2023-07-02T01:30:21;25.90;67.90
67817;DHT22;54614;47.576;7.524;2023-07-02T01:32:46;25.90;67.90
67817;DHT22;54614;47.576;7.524;2023-07-02T01:35:12;25.90;67.90
67817;DHT22;54614;47.576;7.524;2023-07-02T01:37:38;25.90;68.60
67817;DHT22;54614;47.576;7.524;2023-07-02T01:40:04;25.90;67.80
67817;DHT22;54614;47.576;7.524;2023-07-02T01:42:33;25.90;67.80
67817;DHT22;54614;47.576;7.524;2023-07-02T01:44:59;25.90;67.80
67817;DHT22;54614;47.576;7.524;2023-07-02T01:47:25;25.90;67.80
67817;DHT22;54614;47.576;7.524;2023-07-02T01:49:51;25.90;67.80
67817;DHT22;54614;47.576;7.524;2023-07-02T01:52:17;25.90;67.80
67817;DHT22;54614;47.576;7.524;2023-07-02T01:54:43;25.90;67.80
67817;DHT22;54614;47.576;7.524;2023-07-02T01:57:09;25.90;67.90
67817;DHT22;54614;47.576;7.524;2023-07-02T01:59:35;25.90;67.90
67817;DHT22;54614;47.576;7.524;2023-07-02T02:02:01;25.90;67.80
67817;DHT22;54614;47.576;7.524;2023-07-02T02:04:27;25.90;67.70
67817;DHT22;54614;47.576;7.524;2023-07-02T02:06:53;25.90;67.70
67817;DHT22;54614;47.576;7.524;2023-07-02T02:09:19;25.90;67.70
67817;DHT22;54614;47.576;7.524;2023-07-02T02:11:50;25.90;67.70
67817;DHT22;54614;47.576;7.524;2023-07-02T02:14:17;25.90;67.70
67817;DHT22;54614;47.576;7.524;2023-07-02T02:16:44;25.90;67.60
67817;DHT22;54614;47.576;7.524;2023-07-02T02:19:13;25.90;67.70
67817;DHT22;54614;47.576;7.524;2023-07-02T02:21:42;25.90;67.60
67817;DHT22;54614;47.576;7.524;2023-07-02T02:24:08;25.90;68.30
67817;DHT22;54614;47.576;7.524;2023-07-02T02:26:34;25.90;67.60
67817;DHT22;54614;47.576;7.524;2023-07-02T02:29:01;25.90;67.70
67817;DHT22;54614;47.576;7.524;2023-07-02T02:31:27;25.90;67.60
67817;DHT22;54614;47.576;7.524;2023-07-02T02:33:53;25.90;67.60
67817;DHT22;54614;47.576;7.524;2023-07-02T02:36:19;25.90;67.70
67817;DHT22;54614;47.576;7.524;2023-07-02T02:38:46;25.90;67.60
67817;DHT22;54614;47.576;7.524;2023-07-02T02:41:11;25.90;67.60
67817;DHT22;54614;47.576;7.524;2023-07-02T02:43:41;25.90;67.80
67817;DHT22;54614;47.576;7.524;2023-07-02T02:46:09;25.80;67.50
67817;DHT22;54614;47.576;7.524;2023-07-02T02:48:35;25.80;67.50
67817;DHT22;54614;47.576;7.524;2023-07-02T02:51:01;25.80;67.50
67817;DHT22;54614;47.576;7.524;2023-07-02T02:53:27;25.90;67.50
67817;DHT22;54614;47.576;7.524;2023-07-02T02:55:52;25.90;67.50
67817;DHT22;54614;47.576;7.524;2023-07-02T02:58:19;25.90;67.50
67817;DHT22;54614;47.576;7.524;2023-07-02T03:00:44;25.90;67.50
67817;DHT22;54614;47.576;7.524;2023-07-02T03:03:12;25.80;67.50
67817;DHT22;54614;47.576;7.524;2023-07-02T03:05:39;25.80;67.50
67817;DHT22;54614;47.576;7.524;2023-07-02T03:08:05;25.80;67.40
67817;DHT22;54614;47.576;7.524;2023-07-02T03:10:31;25.90;67.50
67817;DHT22;54614;47.576;7.524;2023-07-02T03:12:56;25.90;67.50
67817;DHT22;54614;47.576;7.524;2023-07-02T03:15:22;25.90;67.50
67817;DHT22;54614;47.576;7.524;2023-07-02T03:17:48;25.80;67.40
67817;DHT22;54614;47.576;7.524;2023-07-02T03:20:14;25.80;67.40
67817;DHT22;54614;47.576;7.524;2023-07-02T03:22:39;25.80;67.50
67817;DHT22;54614;47.576;7.524;2023-07-02T03:25:05;25.80;67.50
67817;DHT22;54614;47.576;7.524;2023-07-02T03:27:31;25.80;67.40
67817;DHT22;54614;47.576;7.524;2023-07-02T03:29:57;25.90;67.40
67817;DHT22;54614;47.576;7.524;2023-07-02T03:32:23;25.90;67.40
67817;DHT22;54614;47.576;7.524;2023-07-02T03:34:49;25.80;67.30
67817;DHT22;54614;47.576;7.524;2023-07-02T03:37:15;25.80;67.30
67817;DHT22;54614;47.576;7.524;2023-07-02T03:39:41;25.90;67.40
67817;DHT22;54614;47.576;7.524;2023-07-02T03:42:07;25.80;67.30
67817;DHT22;54614;47.576;7.524;2023-07-02T03:44:32;25.90;67.50
67817;DHT22;54614;47.576;7.524;2023-07-02T03:46:58;25.80;67.40
67817;DHT22;54614;47.576;7.524;2023-07-02T03:49:24;25.80;67.40
67817;DHT22;54614;47.576;7.524;2023-07-02T03:51:50;25.80;67.50
67817;DHT22;54614;47.576;7.524;2023-07-02T03:54:16;25.80;67.50
67817;DHT22;54614;47.576;7.524;2023-07-02T03:56:42;25.80;67.50
67817;DHT22;54614;47.576;7.524;2023-07-02T03:59:07;25.80;67.50
67817;DHT22;54614;47.576;7.524;2023-07-02T04:01:33;25.80;67.50
67817;DHT22;54614;47.576;7.524;2023-07-02T04:03:59;25.60;67.40
67817;DHT22;54614;47.576;7.524;2023-07-02T04:06:25;25.80;67.60
67817;DHT22;54614;47.576;7.524;2023-07-02T04:08:50;25.80;67.70
67817;DHT22;54614;47.576;7.524;2023-07-02T04:11:16;25.80;67.60
67817;DHT22;54614;47.576;7.524;2023-07-02T04:13:42;25.80;67.60
67817;DHT22;54614;47.576;7.524;2023-07-02T04:16:08;25.80;67.70
67817;DHT22;54614;47.576;7.524;2023-07-02T04:18:33;25.80;67.70
67817;DHT22;54614;47.576;7.524;2023-07-02T04:21:01;25.80;67.70
67817;DHT22;54614;47.576;7.524;2023-07-02T04:23:28;25.90;68.40
67817;DHT22;54614;47.576;7.524;2023-07-02T04:25:54;25.90;68.10
67817;DHT22;54614;47.576;7.524;2023-07-02T04:28:19;25.80;68.00
67817;DHT22;54614;47.576;7.524;2023-07-02T04:30:45;25.80;68.00
67817;DHT22;54614;47.576;7.524;2023-07-02T04:33:15;25.80;68.00
67817;DHT22;54614;47.576;7.524;2023-07-02T04:35:41;25.80;68.10
67817;DHT22;54614;47.576;7.524;2023-07-02T04:38:07;25.80;68.10
67817;DHT22;54614;47.576;7.524;2023-07-02T04:40:33;25.80;68.00
67817;DHT22;54614;47.576;7.524;2023-07-02T04:42:59;25.80;67.90
67817;DHT22;54614;47.576;7.524;2023-07-02T04:45:25;25.80;67.90
67817;DHT22;54614;47.576;7.524;2023-07-02T04:47:52;25.80;68.10
67817;DHT22;54614;47.576;7.524;2023-07-02T04:50:18;25.80;68.00
67817;DHT22;54614;47.576;7.524;2023-07-02T04:52:45;25.80;67.90
67817;DHT22;54614;47.576;7.524;2023-07-02T04:55:10;25.80;67.90
67817;DHT22;54614;47.576;7.524;2023-07-02T04:57:36;25.80;67.90
67817;DHT22;54614;47.576;7.524;2023-07-02T05:00:03;25.80;68.60
67817;DHT22;54614;47.576;7.524;2023-07-02T05:02:31;25.80;67.90
67817;DHT22;54614;47.576;7.524;2023-07-02T05:04:57;25.80;67.90
67817;DHT22;54614;47.576;7.524;2023-07-02T05:07:23;25.80;68.00
67817;DHT22;54614;47.576;7.524;2023-07-02T05:09:49;25.80;67.90
67817;DHT22;54614;47.576;7.524;2023-07-02T05:12:17;25.80;67.90
67817;DHT22;54614;47.576;7.524;2023-07-02T05:14:43;25.80;67.80
67817;DHT22;54614;47.576;7.524;2023-07-02T05:17:09;25.80;67.80
67817;DHT22;54614;47.576;7.524;2023-07-02T05:19:35;25.80;67.90
67817;DHT22;54614;47.576;7.524;2023-07-02T05:22:01;25.90;68.00
67817;DHT22;54614;47.576;7.524;2023-07-02T05:24:26;25.80;68.00
67817;DHT22;54614;47.576;7.524;2023-07-02T05:26:52;25.80;68.10
67817;DHT22;54614;47.576;7.524;2023-07-02T05:29:19;25.80;68.10
67817;DHT22;54614;47.576;7.524;2023-07-02T05:31:44;25.90;68.20
67817;DHT22;54614;47.576;7.524;2023-07-02T05:34:10;25.90;68.10
67817;DHT22;54614;47.576;7.524;2023-07-02T05:36:37;25.90;68.20
67817;DHT22;54614;47.576;7.524;2023-07-02T05:39:03;25.90;67.90
67817;DHT22;54614;47.576;7.524;2023-07-02T05:41:29;25.90;68.00
67817;DHT22;54614;47.576;7.524;2023-07-02T05:43:59;25.90;68.00
67817;DHT22;54614;47.576;7.524;2023-07-02T05:46:26;25.90;68.10
67817;DHT22;54614;47.576;7.524;2023-07-02T05:48:51;25.90;68.20
67817;DHT22;54614;47.576;7.524;2023-07-02T05:51:21;25.80;68.20
67817;DHT22;54614;47.576;7.524;2023-07-02T05:53:47;25.90;68.20
67817;DHT22;54614;47.576;7.524;2023-07-02T05:56:13;25.90;68.20
67817;DHT22;54614;47.576;7.524;2023-07-02T05:58:39;25.90;68.30
67817;DHT22;54614;47.576;7.524;2023-07-02T06:01:05;25.90;68.40
67817;DHT22;54614;47.576;7.524;2023-07-02T06:03:32;25.90;68.50
67817;DHT22;54614;47.576;7.524;2023-07-02T06:05:58;25.90;68.40
67817;DHT22;54614;47.576;7.524;2023-07-02T06:08:24;25.90;68.40
67817;DHT22;54614;47.576;7.524;2023-07-02T06:10:50;25.90;68.50
67817;DHT22;54614;47.576;7.524;2023-07-02T06:13:16;25.90;68.60
67817;DHT22;54614;47.576;7.524;2023-07-02T06:15:42;25.90;68.70
67817;DHT22;54614;47.576;7.524;2023-07-02T06:18:08;25.90;68.70
67817;DHT22;54614;47.576;7.524;2023-07-02T06:20:34;25.90;68.90
67817;DHT22;54614;47.576;7.524;2023-07-02T06:23:00;25.90;69.00
67817;DHT22;54614;47.576;7.524;2023-07-02T06:25:26;25.90;69.10
67817;DHT22;54614;47.576;7.524;2023-07-02T06:27:52;25.90;69.20
67817;DHT22;54614;47.576;7.524;2023-07-02T06:30:21;25.80;69.30
67817;DHT22;54614;47.576;7.524;2023-07-02T06:32:47;25.60;68.00
67817;DHT22;54614;47.576;7.524;2023-07-02T06:35:13;25.40;67.50
67817;DHT22;54614;47.576;7.524;2023-07-02T06:37:38;25.30;67.50
67817;DHT22;54614;47.576;7.524;2023-07-02T06:40:05;25.20;67.70
67817;DHT22;54614;47.576;7.524;2023-07-02T06:42:31;25.10;67.80
67817;DHT22;54614;47.576;7.524;2023-07-02T06:44:58;25.10;68.20
67817;DHT22;54614;47.576;7.524;2023-07-02T06:47:24;25.00;68.50
67817;DHT22;54614;47.576;7.524;2023-07-02T06:49:52;25.00;68.90
67817;DHT22;54614;47.576;7.524;2023-07-02T06:52:18;24.90;69.20
67817;DHT22;54614;47.576;7.524;2023-07-02T06:54:44;24.80;69.10
67817;DHT22;54614;47.576;7.524;2023-07-02T06:57:09;24.80;69.10
67817;DHT22;54614;47.576;7.524;2023-07-02T06:59:35;24.70;69.30
67817;DHT22;54614;47.576;7.524;2023-07-02T07:02:02;24.70;69.70
67817;DHT22;54614;47.576;7.524;2023-07-02T07:04:28;24.80;71.20
67817;DHT22;54614;47.576;7.524;2023-07-02T07:06:54;24.70;74.50
67817;DHT22;54614;47.576;7.524;2023-07-02T07:09:21;24.60;70.00
67817;DHT22;54614;47.576;7.524;2023-07-02T07:11:47;24.60;70.50
67817;DHT22;54614;47.576;7.524;2023-07-02T07:14:13;24.60;70.80
67817;DHT22;54614;47.576;7.524;2023-07-02T07:16:39;24.50;71.90
67817;DHT22;54614;47.576;7.524;2023-07-02T07:19:05;24.50;72.30
67817;DHT22;54614;47.576;7.524;2023-07-02T07:21:31;24.60;70.30
67817;DHT22;54614;47.576;7.524;2023-07-02T07:23:57;24.40;84.10
67817;DHT22;54614;47.576;7.524;2023-07-02T07:26:23;24.40;79.80
67817;DHT22;54614;47.576;7.524;2023-07-02T07:28:49;24.10;83.10
67817;DHT22;54614;47.576;7.524;2023-07-02T07:31:15;24.20;76.90
67817;DHT22;54614;47.576;7.524;2023-07-02T07:33:40;24.30;76.70
67817;DHT22;54614;47.576;7.524;2023-07-02T07:36:06;24.20;82.80
67817;DHT22;54614;47.576;7.524;2023-07-02T07:38:32;24.20;78.80
67817;DHT22;54614;47.576;7.524;2023-07-02T07:40:58;24.10;76.80
67817;DHT22;54614;47.576;7.524;2023-07-02T07:43:23;24.20;79.60
67817;DHT22;54614;47.576;7.524;2023-07-02T07:45:49;24.10;78.80
67817;DHT22;54614;47.576;7.524;2023-07-02T07:48:15;24.10;78.30
67817;DHT22;54614;47.576;7.524;2023-07-02T07:50:41;24.00;79.90
67817;DHT22;54614;47.576;7.524;2023-07-02T07:53:06;24.10;80.70
67817;DHT22;54614;47.576;7.524;2023-07-02T07:55:32;24.00;77.80
67817;DHT22;54614;47.576;7.524;2023-07-02T07:57:58;24.10;75.50
67817;DHT22;54614;47.576;7.524;2023-07-02T08:00:24;24.00;74.20
67817;DHT22;54614;47.576;7.524;2023-07-02T08:02:50;24.00;75.10
67817;DHT22;54614;47.576;7.524;2023-07-02T08:05:18;24.10;75.10
67817;DHT22;54614;47.576;7.524;2023-07-02T08:07:43;24.00;75.80
67817;DHT22;54614;47.576;7.524;2023-07-02T08:10:13;23.90;75.30
67817;DHT22;54614;47.576;7.524;2023-07-02T08:12:39;24.00;76.20
67817;DHT22;54614;47.576;7.524;2023-07-02T08:15:05;24.00;75.70
67817;DHT22;54614;47.576;7.524;2023-07-02T08:17:31;24.00;76.30
67817;DHT22;54614;47.576;7.524;2023-07-02T08:19:57;24.00;75.70
67817;DHT22;54614;47.576;7.524;2023-07-02T08:22:23;24.00;76.40
67817;DHT22;54614;47.576;7.524;2023-07-02T08:24:49;24.10;77.00
67817;DHT22;54614;47.576;7.524;2023-07-02T08:27:16;24.00;78.60
67817;DHT22;54614;47.576;7.524;2023-07-02T08:29:46;24.10;77.50
67817;DHT22;54614;47.576;7.524;2023-07-02T08:32:13;24.20;76.40
67817;DHT22;54614;47.576;7.524;2023-07-02T08:34:39;24.20;80.60
67817;DHT22;54614;47.576;7.524;2023-07-02T08:37:05;24.40;77.50
67817;DHT22;54614;47.576;7.524;2023-07-02T08:39:31;24.30;78.00
67817;DHT22;54614;47.576;7.524;2023-07-02T08:42:01;24.40;78.50
67817;DHT22;54614;47.576;7.524;2023-07-02T08:44:27;24.40;77.40
67817;DHT22;54614;47.576;7.524;2023-07-02T08:46:53;24.40;76.50
67817;DHT22;54614;47.576;7.524;2023-07-02T08:49:21;24.50;76.00
67817;DHT22;54614;47.576;7.524;2023-07-02T08:51:48;24.50;75.70
67817;DHT22;54614;47.576;7.524;2023-07-02T08:54:14;24.60;75.60
67817;DHT22;54614;47.576;7.524;2023-07-02T08:56:43;24.70;75.40
67817;DHT22;54614;47.576;7.524;2023-07-02T08:59:10;24.80;75.30
67817;DHT22;54614;47.576;7.524;2023-07-02T09:01:46;24.80;76.10
67817;DHT22;54614;47.576;7.524;2023-07-02T09:04:23;24.90;76.20
67817;DHT22;54614;47.576;7.524;2023-07-02T09:07:11;24.90;75.90
67817;DHT22;54614;47.576;7.524;2023-07-02T09:09:48;25.00;76.60
67817;DHT22;54614;47.576;7.524;2023-07-02T09:12:29;25.00;76.50
67817;DHT22;54614;47.576;7.524;2023-07-02T09:15:01;25.10;78.30
67817;DHT22;54614;47.576;7.524;2023-07-02T09:17:31;25.10;80.50
67817;DHT22;54614;47.576;7.524;2023-07-02T09:20:00;25.20;80.70
67817;DHT22;54614;47.576;7.524;2023-07-02T09:22:29;25.20;77.20
67817;DHT22;54614;47.576;7.524;2023-07-02T09:24:57;25.20;76.20
67817;DHT22;54614;47.576;7.524;2023-07-02T09:27:40;25.10;76.90
67817;DHT22;54614;47.576;7.524;2023-07-02T09:30:15;25.20;77.10
67817;DHT22;54614;47.576;7.524;2023-07-02T09:32:45;25.10;76.60
67817;DHT22;54614;47.576;7.524;2023-07-02T09:35:11;25.10;77.10
67817;DHT22;54614;47.576;7.524;2023-07-02T09:37:39;25.20;76.90
67817;DHT22;54614;47.576;7.524;2023-07-02T09:40:08;25.20;76.60
67817;DHT22;54614;47.576;7.524;2023-07-02T09:42:35;25.20;76.50
67817;DHT22;54614;47.576;7.524;2023-07-02T09:45:08;25.10;76.50
67817;DHT22;54614;47.576;7.524;2023-07-02T09:47:39;25.20;77.60
67817;DHT22;54614;47.576;7.524;2023-07-02T09:50:11;25.20;77.90
67817;DHT22;54614;47.576;7.524;2023-07-02T09:52:41;25.30;78.70
67817;DHT22;54614;47.576;7.524;2023-07-02T09:55:09;25.30;79.10
67817;DHT22;54614;47.576;7.524;2023-07-02T09:57:35;25.30;79.20
67817;DHT22;54614;47.576;7.524;2023-07-02T10:00:02;25.40;79.80
67817;DHT22;54614;47.576;7.524;2023-07-02T10:02:29;25.40;79.40
67817;DHT22;54614;47.576;7.524;2023-07-02T10:04:55;25.40;80.40
67817;DHT22;54614;47.576;7.524;2023-07-02T10:07:30;25.30;80.50
67817;DHT22;54614;47.576;7.524;2023-07-02T10:09:58;25.30;80.70
67817;DHT22;54614;47.576;7.524;2023-07-02T10:12:25;25.30;81.20
67817;DHT22;54614;47.576;7.524;2023-07-02T10:14:57;25.30;83.80
67817;DHT22;54614;47.576;7.524;2023-07-02T10:17:31;25.40;80.90
67817;DHT22;54614;47.576;7.524;2023-07-02T10:20:03;25.40;84.10
67817;DHT22;54614;47.576;7.524;2023-07-02T10:22:46;25.40;78.90
67817;DHT22;54614;47.576;7.524;2023-07-02T10:25:30;25.40;77.80
67817;DHT22;54614;47.576;7.524;2023-07-02T10:28:01;25.50;77.90
67817;DHT22;54614;47.576;7.524;2023-07-02T10:30:35;25.40;78.80
67817;DHT22;54614;47.576;7.524;2023-07-02T10:33:11;25.40;77.30
67817;DHT22;54614;47.576;7.524;2023-07-02T10:35:44;25.40;77.10
67817;DHT22;54614;47.576;7.524;2023-07-02T10:38:20;25.40;76.90
67817;DHT22;54614;47.576;7.524;2023-07-02T10:40:54;25.40;77.60
67817;DHT22;54614;47.576;7.524;2023-07-02T10:43:28;25.40;78.20
67817;DHT22;54614;47.576;7.524;2023-07-02T10:45:56;25.40;78.60
67817;DHT22;54614;47.576;7.524;2023-07-02T10:48:23;25.50;79.20
67817;DHT22;54614;47.576;7.524;2023-07-02T10:50:48;25.40;79.70
67817;DHT22;54614;47.576;7.524;2023-07-02T10:53:16;25.50;79.60
67817;DHT22;54614;47.576;7.524;2023-07-02T10:55:43;25.40;80.50
67817;DHT22;54614;47.576;7.524;2023-07-02T10:58:10;25.40;77.10
67817;DHT22;54614;47.576;7.524;2023-07-02T11:00:50;25.40;75.50
67817;DHT22;54614;47.576;7.524;2023-07-02T11:03:22;25.40;75.40
67817;DHT22;54614;47.576;7.524;2023-07-02T11:05:50;25.50;75.80
67817;DHT22;54614;47.576;7.524;2023-07-02T11:08:17;25.50;75.70
67817;DHT22;54614;47.576;7.524;2023-07-02T11:10:43;25.50;76.50
67817;DHT22;54614;47.576;7.524;2023-07-02T11:13:14;25.50;78.10
67817;DHT22;54614;47.576;7.524;2023-07-02T11:15:44;25.50;77.20
67817;DHT22;54614;47.576;7.524;2023-07-02T11:18:14;25.60;77.40
67817;DHT22;54614;47.576;7.524;2023-07-02T11:20:43;25.60;78.40
67817;DHT22;54614;47.576;7.524;2023-07-02T11:25:59;25.60;87.50
67817;DHT22;54614;47.576;7.524;2023-07-02T11:28:29;25.70;81.50
67817;DHT22;54614;47.576;7.524;2023-07-02T11:30:57;25.70;80.20
67817;DHT22;54614;47.576;7.524;2023-07-02T11:33:36;25.70;80.70
67817;DHT22;54614;47.576;7.524;2023-07-02T11:36:05;25.70;83.20
67817;DHT22;54614;47.576;7.524;2023-07-02T11:38:34;25.70;89.10
67817;DHT22;54614;47.576;7.524;2023-07-02T11:41:05;25.60;82.10
67817;DHT22;54614;47.576;7.524;2023-07-02T11:43:31;25.70;81.80
67817;DHT22;54614;47.576;7.524;2023-07-02T11:45:58;25.70;80.40
67817;DHT22;54614;47.576;7.524;2023-07-02T11:48:25;25.70;80.90
67817;DHT22;54614;47.576;7.524;2023-07-02T11:50:55;25.70;81.10
67817;DHT22;54614;47.576;7.524;2023-07-02T11:53:25;25.70;81.40
67817;DHT22;54614;47.576;7.524;2023-07-02T11:55:51;25.70;80.90
67817;DHT22;54614;47.576;7.524;2023-07-02T11:58:17;25.70;81.40
67817;DHT22;54614;47.576;7.524;2023-07-02T12:00:43;25.70;82.20
67817;DHT22;54614;47.576;7.524;2023-07-02T12:03:08;25.70;79.90
67817;DHT22;54614;47.576;7.524;2023-07-02T12:05:35;25.70;78.50
67817;DHT22;54614;47.576;7.524;2023-07-02T12:08:01;25.70;78.40
67817;DHT22;54614;47.576;7.524;2023-07-02T12:10:28;25.70;78.40
67817;DHT22;54614;47.576;7.524;2023-07-02T12:12:53;25.70;78.70
67817;DHT22;54614;47.576;7.524;2023-07-02T12:15:19;25.70;79.20
67817;DHT22;54614;47.576;7.524;2023-07-02T12:17:45;25.70;79.40
67817;DHT22;54614;47.576;7.524;2023-07-02T12:20:11;25.70;79.80
67817;DHT22;54614;47.576;7.524;2023-07-02T12:22:37;25.70;81.00
67817;DHT22;54614;47.576;7.524;2023-07-02T12:25:03;25.70;83.90
67817;DHT22;54614;47.576;7.524;2023-07-02T12:27:30;25.70;81.70
67817;DHT22;54614;47.576;7.524;2023-07-02T12:29:56;25.70;80.50
67817;DHT22;54614;47.576;7.524;2023-07-02T12:32:22;25.70;84.00
67817;DHT22;54614;47.576;7.524;2023-07-02T12:34:48;25.80;81.00
67817;DHT22;54614;47.576;7.524;2023-07-02T12:37:13;25.70;80.00
67817;DHT22;54614;47.576;7.524;2023-07-02T12:39:42;25.80;80.70
67817;DHT22;54614;47.576;7.524;2023-07-02T12:42:09;25.70;80.00
67817;DHT22;54614;47.576;7.524;2023-07-02T12:44:35;25.70;80.70
67817;DHT22;54614;47.576;7.524;2023-07-02T12:47:01;25.70;80.30
67817;DHT22;54614;47.576;7.524;2023-07-02T12:49:27;25.80;84.80
67817;DHT22;54614;47.576;7.524;2023-07-02T12:51:52;25.70;81.90
67817;DHT22;54614;47.576;7.524;2023-07-02T12:54:18;25.70;82.10
67817;DHT22;54614;47.576;7.524;2023-07-02T12:56:44;25.80;83.50
67817;DHT22;54614;47.576;7.524;2023-07-02T12:59:09;25.80;83.60
67817;DHT22;54614;47.576;7.524;2023-07-02T13:01:35;25.80;86.00
67817;DHT22;54614;47.576;7.524;2023-07-02T13:04:01;25.80;83.90
67817;DHT22;54614;47.576;7.524;2023-07-02T13:06:29;25.90;83.30
67817;DHT22;54614;47.576;7.524;2023-07-02T13:08:55;26.00;87.60
67817;DHT22;54614;47.576;7.524;2023-07-02T13:11:21;26.00;86.00
67817;DHT22;54614;47.576;7.524;2023-07-02T13:16:14;25.90;92.60
67817;DHT22;54614;47.576;7.524;2023-07-02T13:21:05;26.00;94.50
67817;DHT22;54614;47.576;7.524;2023-07-02T13:26:05;26.00;95.80
67817;DHT22;54614;47.576;7.524;2023-07-02T13:28:31;26.30;91.00
67817;DHT22;54614;47.576;7.524;2023-07-02T13:30:57;26.30;87.40
67817;DHT22;54614;47.576;7.524;2023-07-02T13:33:22;26.30;87.50
67817;DHT22;54614;47.576;7.524;2023-07-02T13:35:48;26.30;87.20
67817;DHT22;54614;47.576;7.524;2023-07-02T13:38:14;26.30;87.70
67817;DHT22;54614;47.576;7.524;2023-07-02T13:40:40;26.40;88.10
67817;DHT22;54614;47.576;7.524;2023-07-02T13:45:32;26.30;94.70
67817;DHT22;54614;47.576;7.524;2023-07-02T13:47:58;26.40;90.50
67817;DHT22;54614;47.576;7.524;2023-07-02T13:50:23;26.50;91.40
67817;DHT22;54614;47.576;7.524;2023-07-02T13:52:49;26.40;81.50
67817;DHT22;54614;47.576;7.524;2023-07-02T13:55:15;26.50;81.50
67817;DHT22;54614;47.576;7.524;2023-07-02T13:57:41;26.50;81.50
67817;DHT22;54614;47.576;7.524;2023-07-02T14:00:08;26.60;81.50
67817;DHT22;54614;47.576;7.524;2023-07-02T14:02:34;26.60;83.30
67817;DHT22;54614;47.576;7.524;2023-07-02T14:05:00;26.60;84.60
67817;DHT22;54614;47.576;7.524;2023-07-02T14:07:25;26.60;88.20
67817;DHT22;54614;47.576;7.524;2023-07-02T14:09:51;26.70;91.10
67817;DHT22;54614;47.576;7.524;2023-07-02T14:12:17;26.70;84.50
67817;DHT22;54614;47.576;7.524;2023-07-02T14:14:43;26.70;87.30
67817;DHT22;54614;47.576;7.524;2023-07-02T14:17:12;26.70;87.60
67817;DHT22;54614;47.576;7.524;2023-07-02T14:19:38;26.70;87.50
67817;DHT22;54614;47.576;7.524;2023-07-02T14:22:03;26.80;89.80
67817;DHT22;54614;47.576;7.524;2023-07-02T14:24:29;26.70;86.10
67817;DHT22;54614;47.576;7.524;2023-07-02T14:26:56;26.80;84.40
67817;DHT22;54614;47.576;7.524;2023-07-02T14:29:21;26.80;84.40
67817;DHT22;54614;47.576;7.524;2023-07-02T14:31:47;26.80;84.90
67817;DHT22;54614;47.576;7.524;2023-07-02T14:34:13;26.70;84.00
67817;DHT22;54614;47.576;7.524;2023-07-02T14:36:39;26.70;83.90
67817;DHT22;54614;47.576;7.524;2023-07-02T14:39:04;26.80;84.20
67817;DHT22;54614;47.576;7.524;2023-07-02T14:41:30;26.80;84.20
67817;DHT22;54614;47.576;7.524;2023-07-02T14:44:03;26.80;84.20
67817;DHT22;54614;47.576;7.524;2023-07-02T14:46:30;26.80;84.50
67817;DHT22;54614;47.576;7.524;2023-07-02T14:48:56;26.80;85.10
67817;DHT22;54614;47.576;7.524;2023-07-02T14:51:22;26.80;85.50
67817;DHT22;54614;47.576;7.524;2023-07-02T14:53:50;26.90;90.30
67817;DHT22;54614;47.576;7.524;2023-07-02T14:56:16;26.90;86.40
67817;DHT22;54614;47.576;7.524;2023-07-02T14:58:43;26.90;86.40
67817;DHT22;54614;47.576;7.524;2023-07-02T15:01:09;26.80;85.80
67817;DHT22;54614;47.576;7.524;2023-07-02T15:03:35;26.90;89.20
67817;DHT22;54614;47.576;7.524;2023-07-02T15:06:15;26.90;86.30
67817;DHT22;54614;47.576;7.524;2023-07-02T15:08:43;26.90;83.70
67817;DHT22;54614;47.576;7.524;2023-07-02T15:11:11;26.90;82.40
67817;DHT22;54614;47.576;7.524;2023-07-02T15:13:38;26.90;82.00
67817;DHT22;54614;47.576;7.524;2023-07-02T15:16:07;26.90;81.80
67817;DHT22;54614;47.576;7.524;2023-07-02T15:18:35;26.90;81.90
67817;DHT22;54614;47.576;7.524;2023-07-02T15:21:01;26.90;82.00
67817;DHT22;54614;47.576;7.524;2023-07-02T15:23:28;26.90;82.10
67817;DHT22;54614;47.576;7.524;2023-07-02T15:25:59;27.00;82.10
67817;DHT22;54614;47.576;7.524;2023-07-02T15:28:27;26.90;81.90
67817;DHT22;54614;47.576;7.524;2023-07-02T15:30:55;27.00;81.90
67817;DHT22;54614;47.576;7.524;2023-07-02T15:33:23;26.90;81.70
67817;DHT22;54614;47.576;7.524;2023-07-02T15:35:50;26.90;81.70
67817;DHT22;54614;47.576;7.524;2023-07-02T15:38:17;26.90;81.60
67817;DHT22;54614;47.576;7.524;2023-07-02T15:40:47;26.90;81.70
67817;DHT22;54614;47.576;7.524;2023-07-02T15:43:14;27.00;81.70